Louellen, Kentucky
Current Conditions -  °F | °C
As of 9:55 PM on Thursday 27 Nov 2014 (Local Time) from KI35 Reporting Station
Overcast Overcast  
Wind Chill: 30°   Ceiling: 1700
Heat Index: 30°   Visibility: 7mi
Dew Point: 25°   Wind: 3mph
Humidity: 80%   Direction: 270°W
Pressure: 30.36"   Gusts: NA
Location:  36.8509°N, 83.1611°W
Report Text: KI35 280255Z AUTO 27003KT 7SM BKN017 BKN022 OVC044 M01/M04 A3036 RMK AO1
Loading
Personal Weather Stations






























Interactive Weather Map New forecast layout! Learn more

10-Day Weather Forecast

Advertisements
Track Severe Weather on mobile